Shinkai Maru — JJ4012 — position and weather

sailwx.info

Track history (hours):
 
Tides and Currents Weather Stations Pressure Air Temp Water Temp Dewpoint Dewpoint Depression Visibility Wind Speed Wind Dir Waves Ship Positions

Shinkai Maru

Last reported at 2014-Aug-19 03:03 UTC. Time now 2014-Aug-21 10:17 UTC.
Position N 34°18' E 134°59'.

Length 76 m; draft 3.8 m.

Type: Cargo ship. MMSI: 431301346.

Date/timePositionNaut miles runAvg speedWind from/ knotsBaromVisibWave heightAir tempDewpointWater temp
2014-Aug-19 03:03N 34°18' E 134°59'711.8
2014-Aug-19 02:26N 34°25' E 135°00'1011.5
2014-Aug-19 01:33N 34°35' E 135°03'1312.1
2014-Aug-19 00:29N 34°40' E 134°49'3 0.1
2014-Aug-17 18:22N 34°41' E 134°46'1012.3
2014-Aug-17 17:33N 34°37' E 134°57'10 9.6
2014-Aug-17 16:33N 34°29' E 135°04'1713.2
2014-Aug-17 15:16N 34°13' E 134°60'  
2014-Aug-12 00:29N 34°30' E 135°01'7 7.5
2014-Aug-11 23:33N 34°37' E 135°01'  
Track history (hours):
 
Tides and Currents Weather Stations Pressure Air Temp Water Temp Dewpoint Dewpoint Depression Visibility Wind Speed Wind Dir Waves Ship Positions

Shinkai Maru

Last reported at 2014-Aug-19 03:03 UTC. Time now 2014-Aug-21 10:17 UTC.
Position N 34°18' E 134°59'.

Length 76 m; draft 3.8 m.

Type: Cargo ship. MMSI: 431301346.

Date/timePositionNaut miles runAvg speedWind from/ knotsBaromVisibWave heightAir tempDewpointWater temp
2014-Aug-19 03:03N 34°18' E 134°59'711.8
2014-Aug-19 02:26N 34°25' E 135°00'1011.5
2014-Aug-19 01:33N 34°35' E 135°03'1312.1
2014-Aug-19 00:29N 34°40' E 134°49'3 0.1
2014-Aug-17 18:22N 34°41' E 134°46'1012.3
2014-Aug-17 17:33N 34°37' E 134°57'10 9.6
2014-Aug-17 16:33N 34°29' E 135°04'1713.2
2014-Aug-17 15:16N 34°13' E 134°60'  
2014-Aug-12 00:29N 34°30' E 135°01'7 7.5
2014-Aug-11 23:33N 34°37' E 135°01'  

Dump ship's entire track history